createdAt,value
2022-12-13T00:00:30.729Z,-8.28
2022-12-13T00:02:57.406Z,-8.32
2022-12-13T00:05:24.032Z,-8.29
2022-12-13T00:07:50.715Z,-8.55
2022-12-13T00:10:17.449Z,-8.75
2022-12-13T00:12:44.218Z,-8.75
2022-12-13T00:15:11.388Z,-8.86
2022-12-13T00:17:38.243Z,-8.95
2022-12-13T00:20:05.644Z,-8.90
2022-12-13T00:22:32.315Z,-9.00
2022-12-13T00:24:59.052Z,-9.04
2022-12-13T00:27:25.930Z,-9.07
2022-12-13T00:29:52.706Z,-8.96
2022-12-13T00:32:19.367Z,-8.90
2022-12-13T00:34:46.053Z,-8.89
2022-12-13T00:37:12.877Z,-8.85
2022-12-13T00:39:39.864Z,-8.81
2022-12-13T00:42:06.823Z,-8.86
2022-12-13T00:44:33.518Z,-9.02
2022-12-13T00:47:00.171Z,-8.88
2022-12-13T00:49:26.918Z,-8.85
2022-12-13T00:51:53.605Z,-8.81
2022-12-13T00:54:20.333Z,-8.73
2022-12-13T00:56:47.054Z,-8.97
2022-12-13T00:59:15.529Z,-8.93
2022-12-13T01:01:42.550Z,-8.90
2022-12-13T01:04:10.439Z,-9.06
2022-12-13T01:06:41.876Z,-9.27
2022-12-13T01:09:17.157Z,-9.18
2022-12-13T01:11:44.830Z,-9.09
2022-12-13T01:14:11.895Z,-9.21
2022-12-13T01:16:38.829Z,-9.30
2022-12-13T01:19:05.531Z,-9.29
2022-12-13T01:21:32.322Z,-9.51
2022-12-13T01:24:05.356Z,-9.46
2022-12-13T01:26:32.778Z,-9.24
2022-12-13T01:28:59.968Z,-9.21
2022-12-13T01:31:27.530Z,-9.14
2022-12-13T01:33:54.191Z,-9.05
2022-12-13T01:36:27.584Z,-8.97
2022-12-13T01:38:58.672Z,-9.26
2022-12-13T01:41:27.344Z,-9.34
2022-12-13T01:44:00.040Z,-9.34
2022-12-13T01:46:27.218Z,-9.22
2022-12-13T01:48:58.127Z,-9.15
2022-12-13T01:51:32.072Z,-9.35
2022-12-13T01:54:03.168Z,-9.46
2022-12-13T01:56:36.926Z,-9.48
2022-12-13T01:59:05.748Z,-9.49
2022-12-13T02:01:32.938Z,-9.64
2022-12-13T02:03:59.841Z,-9.54
2022-12-13T02:06:36.479Z,-9.42
2022-12-13T02:09:05.902Z,-9.38
2022-12-13T02:11:35.314Z,-9.33
2022-12-13T02:14:02.171Z,-9.31
2022-12-13T02:16:55.488Z,-9.25
2022-12-13T02:19:53.534Z,-9.42
2022-12-13T02:22:46.228Z,-9.46
2022-12-13T02:25:14.255Z,-9.28
2022-12-13T02:27:42.624Z,-9.39
2022-12-13T02:30:25.298Z,-9.53
2022-12-13T02:33:08.595Z,-9.53
2022-12-13T02:35:53.295Z,-9.58
2022-12-13T02:38:38.058Z,-9.71
2022-12-13T02:41:36.357Z,-9.54
2022-12-13T02:44:23.970Z,-9.49
2022-12-13T02:47:00.132Z,-9.46
2022-12-13T02:49:29.419Z,-9.74
2022-12-13T02:51:59.367Z,-9.83
2022-12-13T02:54:26.043Z,-9.60
2022-12-13T02:57:00.706Z,-9.74
2022-12-13T02:59:31.527Z,-9.74
2022-12-13T03:02:10.107Z,-9.56
2022-12-13T03:05:12.554Z,-9.77
2022-12-13T03:07:49.791Z,-9.80
2022-12-13T03:10:24.054Z,-9.92
2022-12-13T03:13:06.016Z,-9.97
2022-12-13T03:15:47.766Z,-10.04
2022-12-13T03:18:21.439Z,-10.14
2022-12-13T03:20:50.385Z,-10.15
2022-12-13T03:23:19.842Z,-9.92
2022-12-13T03:25:49.876Z,-9.92
2022-12-13T03:28:16.792Z,-10.01
2022-12-13T03:30:43.660Z,-10.18
2022-12-13T03:33:13.641Z,-10.04
2022-12-13T03:35:44.775Z,-9.78
2022-12-13T03:38:22.027Z,-9.83
2022-12-13T03:40:53.655Z,-10.08
2022-12-13T03:43:22.059Z,-10.17
2022-12-13T03:45:49.317Z,-10.24
2022-12-13T03:48:22.629Z,-10.24
2022-12-13T03:50:52.238Z,-10.21
2022-12-13T03:53:23.368Z,-10.30
2022-12-13T03:56:02.453Z,-10.33
2022-12-13T03:58:35.696Z,-10.11
2022-12-13T04:01:05.722Z,-10.13
2022-12-13T04:03:32.392Z,-10.07
2022-12-13T04:05:59.081Z,-9.97
2022-12-13T04:08:25.824Z,-10.08
2022-12-13T04:10:52.587Z,-10.29
2022-12-13T04:13:34.553Z,-10.33
2022-12-13T04:16:02.689Z,-10.24
2022-12-13T04:18:29.931Z,-10.12
2022-12-13T04:20:58.177Z,-10.27
2022-12-13T04:23:24.801Z,-10.01
2022-12-13T04:25:52.875Z,-9.92
2022-12-13T04:28:22.830Z,-9.92
2022-12-13T04:30:53.012Z,-10.01
2022-12-13T04:33:22.428Z,-10.10
2022-12-13T04:35:50.315Z,-10.12
2022-12-13T04:38:17.427Z,-9.98
2022-12-13T04:40:44.139Z,-10.12
2022-12-13T04:43:11.118Z,-10.02
2022-12-13T04:45:37.810Z,-10.01
2022-12-13T04:48:04.910Z,-10.11
2022-12-13T04:50:31.532Z,-9.97
2022-12-13T04:52:58.214Z,-9.89
2022-12-13T04:55:24.902Z,-10.03
2022-12-13T04:57:51.585Z,-10.14
2022-12-13T05:00:18.318Z,-10.26
2022-12-13T05:02:44.994Z,-10.38
2022-12-13T05:05:12.238Z,-10.48
2022-12-13T05:07:41.840Z,-10.29
2022-12-13T05:10:11.093Z,-10.26
2022-12-13T05:12:37.845Z,-10.11
2022-12-13T05:15:05.360Z,-10.08
2022-12-13T05:17:32.115Z,-10.24
2022-12-13T05:19:58.771Z,-10.31
2022-12-13T05:22:25.516Z,-10.27
2022-12-13T05:24:52.252Z,-10.37
2022-12-13T05:27:25.130Z,-10.42
2022-12-13T05:30:02.752Z,-10.55
2022-12-13T05:32:42.550Z,-10.45
2022-12-13T05:35:12.825Z,-10.47
2022-12-13T05:37:39.632Z,-10.59
2022-12-13T05:40:06.962Z,-10.38
2022-12-13T05:42:33.656Z,-10.26
2022-12-13T05:45:00.330Z,-10.22
2022-12-13T05:47:26.983Z,-10.32
2022-12-13T05:49:53.739Z,-10.36
2022-12-13T05:52:22.312Z,-10.36
2022-12-13T05:55:00.963Z,-10.38
2022-12-13T05:57:28.119Z,-10.60
2022-12-13T05:59:55.116Z,-10.73
2022-12-13T06:02:22.221Z,-10.76
2022-12-13T06:04:49.164Z,-10.75
2022-12-13T06:07:15.849Z,-10.70
2022-12-13T06:09:43.681Z,-10.52
2022-12-13T06:12:12.667Z,-10.42
2022-12-13T06:15:00.870Z,-10.29
2022-12-13T06:17:36.847Z,-10.33
2022-12-13T06:20:24.451Z,-10.30
2022-12-13T06:22:53.270Z,-10.35
2022-12-13T06:25:30.582Z,-10.37
2022-12-13T06:28:00.968Z,-10.17
2022-12-13T06:30:29.615Z,-10.37
2022-12-13T06:32:57.021Z,-10.54
2022-12-13T06:35:28.748Z,-10.53
2022-12-13T06:38:01.148Z,-10.41
2022-12-13T06:40:30.761Z,-10.37
2022-12-13T06:42:57.953Z,-10.34
2022-12-13T06:45:26.963Z,-10.29
2022-12-13T06:47:53.721Z,-10.24
2022-12-13T06:50:20.390Z,-10.38
2022-12-13T06:52:47.461Z,-10.51
2022-12-13T06:55:14.557Z,-10.53
2022-12-13T06:57:41.782Z,-10.62
2022-12-13T07:00:10.186Z,-10.66
2022-12-13T07:02:38.451Z,-10.54
2022-12-13T07:05:06.219Z,-10.63
2022-12-13T07:07:32.920Z,-10.53
2022-12-13T07:09:59.747Z,-10.47
2022-12-13T07:12:26.612Z,-10.33
2022-12-13T07:14:53.315Z,-10.32
2022-12-13T07:17:32.641Z,-10.28
2022-12-13T07:20:08.452Z,-10.16
2022-12-13T07:22:39.893Z,-10.14
2022-12-13T07:25:27.170Z,-10.17
2022-12-13T07:28:02.274Z,-10.27
2022-12-13T07:30:31.516Z,-10.36
2022-12-13T07:32:58.266Z,-10.32
2022-12-13T07:35:28.164Z,-10.26
2022-12-13T07:37:54.981Z,-10.17
2022-12-13T07:40:21.658Z,-9.77
2022-12-13T07:42:51.550Z,-9.45
2022-12-13T07:45:18.676Z,-9.43
2022-12-13T07:47:45.565Z,-9.34
2022-12-13T07:50:24.222Z,-9.24
2022-12-13T07:52:53.514Z,-9.10
2022-12-13T07:55:23.274Z,-8.98
2022-12-13T07:58:06.307Z,-8.83
2022-12-13T08:00:33.294Z,-8.58
2022-12-13T08:03:01.969Z,-8.16
2022-12-13T08:05:29.310Z,-7.81
2022-12-13T08:08:07.805Z,-7.62
2022-12-13T08:10:34.520Z,-7.48
2022-12-13T08:13:03.194Z,-7.25
2022-12-13T08:15:30.581Z,-6.80
2022-12-13T08:17:57.974Z,-6.64
2022-12-13T08:20:24.671Z,-6.51
2022-12-13T08:22:56.020Z,-6.25
2022-12-13T08:25:29.619Z,-6.27
2022-12-13T08:28:01.482Z,-6.58
2022-12-13T08:30:30.590Z,-6.59
2022-12-13T08:32:57.685Z,-6.49
2022-12-13T08:35:33.773Z,-6.30
2022-12-13T08:38:01.182Z,-6.22
2022-12-13T08:40:28.011Z,-6.16
2022-12-13T08:42:56.086Z,-6.05
2022-12-13T08:45:24.252Z,-6.00
2022-12-13T08:47:50.919Z,-5.84
2022-12-13T08:50:17.725Z,-5.65
2022-12-13T08:52:45.260Z,-5.82
2022-12-13T08:55:14.428Z,-5.86
2022-12-13T08:57:42.514Z,-5.72
2022-12-13T09:00:14.065Z,-5.56
2022-12-13T09:02:40.910Z,-5.54
2022-12-13T09:05:09.196Z,-5.62
2022-12-13T09:07:36.965Z,-5.64
2022-12-13T09:10:07.283Z,-5.56
2022-12-13T09:12:52.300Z,-5.55
2022-12-13T09:15:34.278Z,-5.47
2022-12-13T09:18:04.118Z,-5.50
2022-12-13T09:20:32.333Z,-5.44
2022-12-13T09:23:14.244Z,-5.21
2022-12-13T09:26:05.912Z,-5.09
2022-12-13T09:28:34.868Z,-4.89
2022-12-13T09:31:02.008Z,-4.65
2022-12-13T09:33:30.598Z,-4.38
2022-12-13T09:35:57.955Z,-4.03
2022-12-13T09:38:24.660Z,-3.59
2022-12-13T09:40:59.195Z,-3.00
2022-12-13T09:43:33.521Z,-2.26
2022-12-13T09:46:22.932Z,-1.87
2022-12-13T09:49:01.601Z,-1.58
2022-12-13T09:51:41.490Z,-1.37
2022-12-13T09:54:21.184Z,-1.23
2022-12-13T09:56:51.177Z,-1.14
2022-12-13T09:59:23.954Z,-0.88
2022-12-13T10:01:50.696Z,-0.58
2022-12-13T10:04:18.268Z,-0.80
2022-12-13T10:06:44.946Z,-0.85
2022-12-13T10:09:14.269Z,-0.89
2022-12-13T10:11:56.542Z,-0.56
2022-12-13T10:14:31.457Z,-0.26
2022-12-13T10:17:02.709Z,0.05
2022-12-13T10:19:36.844Z,-0.45
2022-12-13T10:22:06.113Z,-0.46
2022-12-13T10:24:48.311Z,0.05
2022-12-13T10:27:18.153Z,0.55
2022-12-13T10:30:00.291Z,0.09
2022-12-13T10:32:28.092Z,0.14
2022-12-13T10:34:55.439Z,0.38
2022-12-13T10:37:23.113Z,0.03
2022-12-13T10:39:50.339Z,0.01
2022-12-13T10:42:23.704Z,-0.09
2022-12-13T10:45:14.245Z,-0.36
2022-12-13T10:47:44.709Z,-0.34
2022-12-13T10:50:28.637Z,-0.92
2022-12-13T10:52:57.662Z,-0.60
2022-12-13T10:55:25.944Z,-0.63
2022-12-13T10:57:55.520Z,-0.90
2022-12-13T11:00:38.019Z,-0.42
2022-12-13T11:03:05.826Z,-0.40
2022-12-13T11:05:35.176Z,-0.51
2022-12-13T11:08:27.109Z,-0.41
2022-12-13T11:10:59.241Z,-0.62
2022-12-13T11:13:35.005Z,-0.69
2022-12-13T11:16:02.871Z,-1.16
2022-12-13T11:18:37.458Z,-0.96
2022-12-13T11:21:07.958Z,-1.13
2022-12-13T11:23:39.704Z,-1.13
2022-12-13T11:26:10.679Z,-1.30
2022-12-13T11:29:07.551Z,-1.47
2022-12-13T11:31:36.299Z,-1.66
2022-12-13T11:34:18.199Z,-1.80
2022-12-13T11:36:54.192Z,-2.09
2022-12-13T11:39:33.134Z,-2.10
2022-12-13T11:42:22.625Z,-2.24
2022-12-13T11:45:11.755Z,-2.43
2022-12-13T11:48:02.232Z,-2.22
2022-12-13T11:50:34.575Z,-2.18
2022-12-13T11:53:19.035Z,-1.96
2022-12-13T11:55:54.633Z,-2.20
2022-12-13T12:01:38.216Z,-2.20
2022-12-13T12:04:29.666Z,-2.16
2022-12-13T12:07:24.606Z,-2.37
2022-12-13T12:09:58.181Z,-2.26
2022-12-13T12:12:33.682Z,-2.33
2022-12-13T12:15:26.521Z,-2.55
2022-12-13T12:17:55.762Z,-2.58
2022-12-13T12:20:37.309Z,-2.54
2022-12-13T12:23:20.985Z,-2.43
2022-12-13T12:25:57.953Z,-2.54
2022-12-13T12:28:44.198Z,-2.43
2022-12-13T12:31:29.796Z,-2.56
2022-12-13T12:34:10.243Z,-2.59
2022-12-13T12:36:52.222Z,-2.51
2022-12-13T12:39:20.113Z,-2.55
2022-12-13T12:42:18.846Z,-2.59
2022-12-13T12:45:10.680Z,-2.55
2022-12-13T12:50:59.761Z,-2.67
2022-12-13T12:53:43.474Z,-2.55
2022-12-13T12:56:41.267Z,-2.55
2022-12-13T12:59:36.969Z,-2.45
2022-12-13T13:02:16.162Z,-2.37
2022-12-13T13:04:48.774Z,-2.28
2022-12-13T13:07:24.107Z,-2.18
2022-12-13T13:09:54.803Z,-2.27
2022-12-13T13:12:29.536Z,-2.21
2022-12-13T13:14:57.962Z,-2.33
2022-12-13T13:17:24.670Z,-2.30
2022-12-13T13:20:23.417Z,-2.13
2022-12-13T13:23:10.258Z,-2.15
2022-12-13T13:25:54.316Z,-2.05
2022-12-13T13:28:25.946Z,-1.90
2022-12-13T13:31:09.265Z,-1.77
2022-12-13T13:33:44.501Z,-1.67
2022-12-13T13:36:46.862Z,-1.41
2022-12-13T13:39:34.424Z,-1.06
2022-12-13T13:42:09.914Z,-0.73
2022-12-13T13:44:51.921Z,-0.32
2022-12-13T13:47:19.611Z,0.15
2022-12-13T13:50:21.105Z,0.49
2022-12-13T13:53:04.201Z,0.70
2022-12-13T13:55:48.345Z,0.53
2022-12-13T13:58:45.652Z,0.73
2022-12-13T14:01:27.796Z,0.46
2022-12-13T14:04:31.750Z,0.42
2022-12-13T14:07:14.745Z,0.08
2022-12-13T14:10:08.154Z,0.05
2022-12-13T14:12:35.866Z,-0.14
2022-12-13T14:15:42.369Z,-0.10
2022-12-13T14:18:46.782Z,0.22
2022-12-13T14:21:29.818Z,0.36
2022-12-13T14:24:24.875Z,0.11
2022-12-13T14:27:24.341Z,0.02
2022-12-13T14:29:58.342Z,-0.29
2022-12-13T14:32:29.374Z,-0.86
2022-12-13T14:34:59.759Z,-1.39
2022-12-13T14:37:56.673Z,-1.51
2022-12-13T14:40:28.271Z,-1.67
2022-12-13T14:42:55.061Z,-1.74
2022-12-13T14:45:25.080Z,-2.05
2022-12-13T14:47:54.592Z,-2.15
2022-12-13T14:50:21.952Z,-2.23
2022-12-13T14:52:50.602Z,-2.67
2022-12-13T14:55:30.398Z,-2.88
2022-12-13T14:57:59.666Z,-2.82
2022-12-13T15:00:28.578Z,-3.00
2022-12-13T15:02:59.951Z,-3.26
2022-12-13T15:05:29.516Z,-3.37
2022-12-13T15:07:56.641Z,-3.46
2022-12-13T15:10:30.102Z,-3.49
2022-12-13T15:12:57.092Z,-3.51
2022-12-13T15:15:31.342Z,-3.60
2022-12-13T15:18:17.320Z,-3.67
2022-12-13T15:20:45.552Z,-4.05
2022-12-13T15:23:31.394Z,-4.18
2022-12-13T15:26:03.473Z,-4.23
2022-12-13T15:28:35.297Z,-4.40
2022-12-13T15:31:04.321Z,-4.32
2022-12-13T15:33:35.435Z,-4.32
2022-12-13T15:36:15.622Z,-4.42
2022-12-13T15:38:58.739Z,-4.67
2022-12-13T15:41:29.634Z,-4.77
2022-12-13T15:44:00.547Z,-4.88
2022-12-13T15:46:30.850Z,-4.95
2022-12-13T15:49:01.171Z,-4.87
2022-12-13T15:51:28.711Z,-4.88
2022-12-13T15:54:20.000Z,-4.83
2022-12-13T15:57:17.646Z,-5.02
2022-12-13T15:59:44.854Z,-4.94
2022-12-13T16:02:15.242Z,-5.09
2022-12-13T16:04:42.075Z,-5.09
2022-12-13T16:07:22.735Z,-5.06
2022-12-13T16:09:50.686Z,-5.20
2022-12-13T16:12:24.859Z,-5.31
2022-12-13T16:14:52.021Z,-5.28
2022-12-13T16:17:25.126Z,-5.47
2022-12-13T16:19:54.116Z,-5.49
2022-12-13T16:22:23.824Z,-5.54
2022-12-13T16:24:52.820Z,-5.57
2022-12-13T16:27:19.511Z,-5.53
2022-12-13T16:29:46.129Z,-5.50
2022-12-13T16:32:12.855Z,-5.48
2022-12-13T16:34:39.721Z,-5.48
2022-12-13T16:37:08.817Z,-5.49
2022-12-13T16:39:52.581Z,-5.66
2022-12-13T16:42:19.653Z,-5.66
2022-12-13T16:44:48.132Z,-5.63
2022-12-13T16:47:22.371Z,-5.58
2022-12-13T16:49:53.816Z,-5.51
2022-12-13T16:52:22.054Z,-5.47
2022-12-13T16:54:48.876Z,-5.42
2022-12-13T16:57:15.541Z,-5.35
2022-12-13T16:59:42.202Z,-5.30
2022-12-13T17:02:17.834Z,-5.25
2022-12-13T17:04:44.732Z,-5.21
2022-12-13T17:07:11.417Z,-5.15
2022-12-13T17:09:39.107Z,-5.15
2022-12-13T17:12:06.044Z,-5.12
2022-12-13T17:14:32.722Z,-5.10
2022-12-13T17:16:59.469Z,-5.07
2022-12-13T17:19:26.285Z,-5.05
2022-12-13T17:21:53.408Z,-5.06
2022-12-13T17:24:20.123Z,-5.03
2022-12-13T17:26:53.814Z,-5.04
2022-12-13T17:29:21.983Z,-5.06
2022-12-13T17:31:48.683Z,-5.06
2022-12-13T17:34:15.574Z,-5.09
2022-12-13T17:36:43.612Z,-5.09
2022-12-13T17:39:12.219Z,-5.07
2022-12-13T17:41:39.113Z,-5.05
2022-12-13T17:44:06.183Z,-5.04
2022-12-13T17:46:34.737Z,-5.04
2022-12-13T17:49:02.170Z,-5.05
2022-12-13T17:51:29.505Z,-5.08
2022-12-13T17:53:56.226Z,-5.08
2022-12-13T17:56:22.889Z,-5.06
2022-12-13T17:58:49.680Z,-5.09
2022-12-13T18:01:17.700Z,-5.08
2022-12-13T18:03:45.003Z,-5.07
2022-12-13T18:06:12.217Z,-5.10
2022-12-13T18:08:40.605Z,-5.11
2022-12-13T18:14:06.142Z,-5.14
2022-12-13T18:16:37.439Z,-5.16
2022-12-13T18:19:07.373Z,-5.18
2022-12-13T18:21:35.615Z,-5.20
2022-12-13T18:24:02.505Z,-5.22
2022-12-13T18:26:29.400Z,-5.25
2022-12-13T18:28:56.220Z,-5.26
2022-12-13T18:31:24.627Z,-5.29
2022-12-13T18:33:53.451Z,-5.29
2022-12-13T18:36:22.182Z,-5.31
2022-12-13T18:38:49.064Z,-5.30
2022-12-13T18:41:18.396Z,-5.29
2022-12-13T18:43:45.906Z,-5.31
2022-12-13T18:46:14.639Z,-5.30
2022-12-13T18:48:41.916Z,-5.32
2022-12-13T18:51:09.784Z,-5.33
2022-12-13T18:53:37.824Z,-5.36
2022-12-13T18:56:10.438Z,-5.32
2022-12-13T18:58:41.873Z,-5.33
2022-12-13T19:01:11.794Z,-5.34
2022-12-13T19:03:38.975Z,-5.33
2022-12-13T19:06:07.080Z,-5.32
2022-12-13T19:08:36.595Z,-5.33
2022-12-13T19:11:03.860Z,-5.37
2022-12-13T19:13:32.269Z,-5.38
2022-12-13T19:16:06.260Z,-5.33
2022-12-13T19:18:33.624Z,-5.34
2022-12-13T19:21:00.339Z,-5.35
2022-12-13T19:23:30.461Z,-5.33
2022-12-13T19:25:58.328Z,-5.32
2022-12-13T19:28:24.957Z,-5.33
2022-12-13T19:30:52.143Z,-5.31
2022-12-13T19:33:19.407Z,-5.30
2022-12-13T19:35:48.912Z,-5.32
2022-12-13T19:38:15.576Z,-5.33
2022-12-13T19:40:47.018Z,-5.31
2022-12-13T19:43:13.720Z,-5.33
2022-12-13T19:45:45.558Z,-5.33
2022-12-13T19:48:13.055Z,-5.33
2022-12-13T19:50:40.365Z,-5.27
2022-12-13T19:53:08.065Z,-5.29
2022-12-13T19:55:35.046Z,-5.29
2022-12-13T19:58:02.132Z,-5.31
2022-12-13T20:00:28.875Z,-5.30
2022-12-13T20:02:55.851Z,-5.32
2022-12-13T20:05:22.572Z,-5.33
2022-12-13T20:07:49.925Z,-5.35
2022-12-13T20:10:16.695Z,-5.32
2022-12-13T20:12:43.387Z,-5.31
2022-12-13T20:15:10.403Z,-5.29
2022-12-13T20:17:37.104Z,-5.28
2022-12-13T20:20:05.364Z,-5.28
2022-12-13T20:22:33.233Z,-5.31
2022-12-13T20:24:59.893Z,-5.32
2022-12-13T20:27:27.112Z,-5.33
2022-12-13T20:29:53.834Z,-5.34
2022-12-13T20:32:21.365Z,-5.36
2022-12-13T20:34:54.346Z,-5.37
2022-12-13T20:37:21.623Z,-5.37
2022-12-13T20:39:48.330Z,-5.34
2022-12-13T20:42:17.484Z,-5.37
2022-12-13T20:44:44.789Z,-5.39
2022-12-13T20:47:11.544Z,-5.34
2022-12-13T20:49:38.266Z,-5.36
2022-12-13T20:52:05.290Z,-5.31
2022-12-13T20:54:32.016Z,-5.32
2022-12-13T20:56:58.668Z,-5.29
2022-12-13T20:59:25.431Z,-5.29
2022-12-13T21:01:52.501Z,-5.27
2022-12-13T21:04:19.306Z,-5.20
2022-12-13T21:06:45.946Z,-5.24
2022-12-13T21:09:12.938Z,-5.31
2022-12-13T21:11:40.743Z,-5.37
2022-12-13T21:14:11.154Z,-5.42
2022-12-13T21:16:43.432Z,-5.41
2022-12-13T21:19:12.986Z,-5.43
2022-12-13T21:21:39.685Z,-5.48
2022-12-13T21:24:06.690Z,-5.50
2022-12-13T21:26:36.157Z,-5.60
2022-12-13T21:29:06.717Z,-5.65
2022-12-13T21:31:35.369Z,-5.62
2022-12-13T21:34:02.494Z,-5.61
2022-12-13T21:36:33.601Z,-5.62
2022-12-13T21:39:02.537Z,-5.71
2022-12-13T21:41:29.686Z,-5.88
2022-12-13T21:43:56.477Z,-5.87
2022-12-13T21:46:35.737Z,-5.90
2022-12-13T21:49:12.171Z,-5.82
2022-12-13T21:51:42.151Z,-5.93
2022-12-13T21:54:12.837Z,-5.96
2022-12-13T21:56:54.875Z,-5.94
2022-12-13T21:59:24.356Z,-5.92
2022-12-13T22:02:10.043Z,-5.91
2022-12-13T22:04:38.591Z,-5.91
2022-12-13T22:07:07.233Z,-5.90
2022-12-13T22:09:36.013Z,-5.95
2022-12-13T22:12:06.566Z,-5.97
2022-12-13T22:14:33.210Z,-6.02
2022-12-13T22:16:59.893Z,-5.96
2022-12-13T22:19:28.051Z,-5.98
2022-12-13T22:21:54.718Z,-5.96
2022-12-13T22:24:21.486Z,-5.95
2022-12-13T22:26:48.109Z,-5.95
2022-12-13T22:29:15.279Z,-6.00
2022-12-13T22:31:42.105Z,-6.02
2022-12-13T22:34:09.076Z,-6.00
2022-12-13T22:36:35.771Z,-5.99
2022-12-13T22:39:03.869Z,-6.11
2022-12-13T22:41:30.594Z,-6.13
2022-12-13T22:43:58.691Z,-6.11
2022-12-13T22:46:26.661Z,-6.11
2022-12-13T22:48:53.776Z,-6.11
2022-12-13T22:51:20.534Z,-6.09
2022-12-13T22:53:48.460Z,-6.15
2022-12-13T22:56:19.644Z,-6.12
2022-12-13T22:58:46.728Z,-6.12
2022-12-13T23:01:16.854Z,-6.18
2022-12-13T23:03:45.109Z,-6.12
2022-12-13T23:06:13.370Z,-6.19
2022-12-13T23:08:43.572Z,-6.23
2022-12-13T23:11:27.438Z,-6.21
2022-12-13T23:13:55.830Z,-6.16
2022-12-13T23:16:25.141Z,-6.20
2022-12-13T23:19:05.254Z,-6.17
2022-12-13T23:21:38.519Z,-6.13
2022-12-13T23:24:09.691Z,-6.21
2022-12-13T23:26:37.161Z,-6.18
2022-12-13T23:29:08.029Z,-6.18
2022-12-13T23:31:38.705Z,-6.09
2022-12-13T23:34:06.664Z,-6.06
2022-12-13T23:36:34.168Z,-6.10
2022-12-13T23:39:02.600Z,-6.12
2022-12-13T23:41:34.434Z,-6.13
2022-12-13T23:44:01.161Z,-6.10
2022-12-13T23:46:31.723Z,-6.13
2022-12-13T23:49:01.595Z,-6.21
2022-12-13T23:51:28.896Z,-6.21
2022-12-13T23:53:55.713Z,-6.24
2022-12-13T23:56:23.552Z,-6.20
2022-12-13T23:58:50.953Z,-6.22
